createdAt,value
2022-08-04T00:00:49.475Z,71.89
2022-08-04T00:03:57.488Z,72.23
2022-08-04T00:07:05.049Z,72.53
2022-08-04T00:10:13.239Z,73.16
2022-08-04T00:13:21.480Z,73.66
2022-08-04T00:16:31.441Z,74.06
2022-08-04T00:19:33.607Z,72.66
2022-08-04T00:22:35.136Z,73.66
2022-08-04T00:25:43.459Z,73.66
2022-08-04T00:28:51.452Z,74.20
2022-08-04T00:31:59.307Z,74.40
2022-08-04T00:35:07.632Z,74.80
2022-08-04T00:38:15.262Z,75.20
2022-08-04T00:41:23.621Z,75.46
2022-08-04T00:44:31.555Z,74.20
2022-08-04T00:47:39.363Z,75.00
2022-08-04T00:50:47.676Z,74.70
2022-08-04T00:53:55.106Z,75.20
2022-08-04T00:57:03.126Z,74.84
2022-08-04T01:00:11.495Z,74.93
2022-08-04T01:03:19.002Z,75.43
2022-08-04T01:06:27.465Z,75.84
2022-08-04T01:09:35.422Z,75.43
2022-08-04T01:12:43.383Z,75.54
2022-08-04T01:15:57.108Z,75.23
2022-08-04T01:18:56.973Z,73.63
2022-08-04T01:22:04.899Z,74.54
2022-08-04T01:25:12.484Z,74.43
2022-08-04T01:28:22.166Z,75.67
2022-08-04T01:31:32.347Z,76.17
2022-08-04T01:34:40.042Z,76.78
2022-08-04T01:37:48.332Z,77.28
2022-08-04T01:40:55.931Z,77.37
2022-08-04T01:44:04.535Z,77.28
2022-08-04T01:47:13.037Z,76.67
2022-08-04T01:50:21.735Z,75.97
2022-08-04T01:53:30.282Z,76.51
2022-08-04T01:56:38.252Z,76.87
2022-08-04T01:59:46.182Z,76.57
2022-08-04T02:02:54.686Z,76.98
2022-08-04T02:06:04.181Z,76.98
2022-08-04T02:09:12.270Z,76.87
2022-08-04T02:12:20.053Z,76.78
2022-08-04T02:15:28.481Z,77.21
2022-08-04T02:18:36.064Z,77.61
2022-08-04T02:21:43.567Z,77.95
2022-08-04T02:24:51.659Z,77.85
2022-08-04T02:28:00.979Z,78.05
2022-08-04T02:31:09.343Z,78.45
2022-08-04T02:34:17.624Z,77.95
2022-08-04T02:37:25.447Z,78.25
2022-08-04T02:40:33.651Z,77.55
2022-08-04T02:43:51.931Z,77.15
2022-08-04T02:46:47.575Z,77.45
2022-08-04T02:49:55.616Z,77.89
2022-08-04T02:53:09.901Z,78.25
2022-08-04T02:56:07.928Z,77.85
2022-08-04T02:59:15.659Z,78.05
2022-08-04T03:02:23.625Z,77.75
2022-08-04T03:05:31.581Z,77.45
2022-08-04T03:08:36.986Z,77.35
2022-08-04T03:11:45.473Z,77.99
2022-08-04T03:14:53.005Z,78.49
2022-08-04T03:18:01.208Z,78.53
2022-08-04T03:21:09.677Z,78.42
2022-08-04T03:24:20.332Z,79.06
2022-08-04T03:27:28.896Z,80.27
2022-08-04T03:30:36.824Z,80.68
2022-08-04T03:33:45.158Z,80.74
2022-08-04T03:36:53.714Z,80.83
2022-08-04T03:40:01.867Z,80.60
2022-08-04T03:43:09.945Z,80.50
2022-08-04T03:46:15.876Z,80.50
2022-08-04T03:49:23.726Z,79.90
2022-08-04T03:52:31.617Z,79.60
2022-08-04T03:55:39.599Z,78.89
2022-08-04T03:58:47.591Z,79.09
2022-08-04T04:02:01.221Z,78.69
2022-08-04T04:05:00.187Z,79.29
2022-08-04T04:08:13.765Z,78.29
2022-08-04T04:11:14.628Z,78.15
2022-08-04T04:14:22.989Z,77.75
2022-08-04T04:17:31.365Z,77.35
2022-08-04T04:20:38.849Z,77.45
2022-08-04T04:23:47.415Z,76.75
2022-08-04T04:26:54.909Z,76.85
2022-08-04T04:30:03.366Z,76.45
2022-08-04T04:33:11.822Z,77.35
2022-08-04T04:36:20.086Z,77.39
2022-08-04T04:39:28.423Z,77.69
2022-08-04T04:42:36.697Z,77.59
2022-08-04T04:45:44.197Z,77.48
2022-08-04T04:48:52.711Z,77.79
2022-08-04T04:52:00.727Z,77.19
2022-08-04T04:55:08.846Z,76.95
2022-08-04T04:58:16.670Z,77.15
2022-08-04T05:01:25.005Z,77.85
2022-08-04T05:04:32.813Z,78.96
2022-08-04T05:07:41.308Z,79.49
2022-08-04T05:10:49.531Z,79.66
2022-08-04T05:14:37.625Z,78.35
2022-08-04T05:17:02.766Z,77.81
2022-08-04T05:20:11.123Z,77.17
2022-08-04T05:23:20.172Z,75.23
2022-08-04T05:26:28.301Z,73.26
2022-08-04T05:29:36.338Z,71.83
2022-08-04T05:32:44.236Z,70.79
2022-08-04T05:36:16.827Z,69.76
2022-08-04T05:38:57.276Z,69.73
2022-08-04T05:42:05.116Z,68.63
2022-08-04T05:45:15.305Z,67.99
2022-08-04T05:48:23.369Z,67.99
2022-08-04T05:51:31.229Z,67.07
2022-08-04T05:54:38.742Z,67.66
2022-08-04T05:57:46.972Z,66.13
2022-08-04T06:00:54.923Z,66.13
2022-08-04T06:04:05.750Z,66.03
2022-08-04T06:07:08.070Z,66.50
2022-08-04T06:10:15.605Z,65.91
2022-08-04T06:13:48.996Z,65.57
2022-08-04T06:16:30.818Z,65.77
2022-08-04T06:20:01.891Z,65.74
2022-08-04T06:22:43.969Z,65.24
2022-08-04T06:25:52.120Z,64.72
2022-08-04T06:29:00.390Z,64.51
2022-08-04T06:32:30.810Z,64.18
2022-08-04T06:35:13.869Z,63.89
2022-08-04T06:38:21.926Z,63.26
2022-08-04T06:41:29.827Z,62.13
2022-08-04T06:44:38.338Z,60.91
2022-08-04T06:47:46.230Z,60.49
2022-08-04T06:51:31.983Z,58.27
2022-08-04T06:53:59.753Z,57.65
2022-08-04T06:57:07.213Z,56.63
2022-08-04T07:00:15.234Z,55.61
2022-08-04T07:03:23.044Z,55.39
2022-08-04T07:06:30.418Z,54.96
2022-08-04T07:09:38.412Z,54.47
2022-08-04T07:12:46.790Z,52.86
2022-08-04T07:15:54.190Z,52.14
2022-08-04T07:19:10.020Z,51.82
2022-08-04T07:22:24.851Z,50.83
2022-08-04T07:25:13.097Z,50.81
2022-08-04T07:28:21.355Z,51.18
2022-08-04T07:31:34.193Z,50.38
2022-08-04T07:34:32.099Z,49.96
2022-08-04T07:37:40.120Z,49.18
2022-08-04T07:40:48.299Z,49.45
2022-08-04T07:43:56.703Z,49.72
2022-08-04T07:47:04.677Z,47.94
2022-08-04T07:50:14.017Z,48.12
2022-08-04T07:53:55.284Z,47.41
2022-08-04T07:56:29.160Z,45.78
2022-08-04T07:59:38.141Z,45.67
2022-08-04T08:02:45.592Z,46.25
2022-08-04T08:06:17.962Z,46.65
2022-08-04T08:08:58.546Z,45.37
2022-08-04T08:12:38.548Z,45.25
2022-08-04T08:15:12.176Z,45.32
2022-08-04T08:18:13.241Z,44.15
2022-08-04T08:21:21.454Z,44.22
2022-08-04T08:24:29.313Z,43.22
2022-08-04T08:27:37.363Z,43.59
2022-08-04T08:30:46.217Z,42.58
2022-08-04T08:33:50.366Z,41.02
2022-08-04T08:36:58.547Z,40.80
2022-08-04T08:40:06.779Z,40.78
2022-08-04T08:44:04.525Z,40.39
2022-08-04T08:46:38.811Z,40.27
2022-08-04T08:50:00.171Z,40.08
2022-08-04T08:52:55.363Z,38.47
2022-08-04T08:55:35.942Z,38.37
2022-08-04T08:58:43.997Z,37.96
2022-08-04T09:01:52.109Z,37.06
2022-08-04T09:04:59.979Z,36.28
2022-08-04T09:08:07.778Z,36.75
2022-08-04T09:11:15.611Z,36.46
2022-08-04T09:14:23.978Z,35.09
2022-08-04T09:17:31.925Z,35.75
2022-08-04T09:20:39.965Z,36.15
2022-08-04T09:23:48.531Z,34.96
2022-08-04T09:26:59.914Z,34.47
2022-08-04T09:29:57.371Z,34.55
2022-08-04T09:33:05.157Z,33.87
2022-08-04T09:36:12.994Z,34.84
2022-08-04T09:39:21.377Z,33.06
2022-08-04T09:42:29.358Z,32.84
2022-08-04T09:45:42.252Z,32.37
2022-08-04T09:48:40.511Z,32.76
2022-08-04T09:51:57.443Z,32.94
2022-08-04T09:54:53.814Z,32.55
2022-08-04T09:58:02.036Z,33.14
2022-08-04T10:01:10.373Z,32.94
2022-08-04T10:04:17.820Z,34.11
2022-08-04T10:07:28.149Z,34.01
2022-08-04T10:10:36.353Z,32.84
2022-08-04T10:13:43.882Z,32.63
2022-08-04T10:16:52.367Z,32.34
2022-08-04T10:20:00.505Z,32.92
2022-08-04T10:23:11.499Z,32.62
2022-08-04T10:26:09.719Z,32.32
2022-08-04T10:29:17.570Z,32.29
2022-08-04T10:32:25.382Z,31.21
2022-08-04T10:35:33.184Z,32.47
2022-08-04T10:38:41.562Z,32.76
2022-08-04T10:41:49.504Z,30.83
2022-08-04T10:44:57.952Z,31.61
2022-08-04T10:48:06.335Z,32.76
2022-08-04T10:51:07.599Z,31.18
2022-08-04T10:54:15.841Z,29.40
2022-08-04T10:57:24.493Z,30.35
2022-08-04T11:00:31.993Z,30.55
2022-08-04T11:03:40.328Z,30.55
2022-08-04T11:06:48.379Z,30.47
2022-08-04T11:09:56.411Z,30.57
2022-08-04T11:13:04.772Z,29.98
2022-08-04T11:16:12.787Z,30.45
2022-08-04T11:19:20.725Z,31.23
2022-08-04T11:22:28.933Z,30.35
2022-08-04T11:25:36.786Z,30.26
2022-08-04T11:28:44.597Z,31.53
2022-08-04T11:31:52.611Z,30.57
2022-08-04T11:35:00.542Z,32.04
2022-08-04T11:38:08.754Z,31.15
2022-08-04T11:41:16.864Z,31.24
2022-08-04T11:44:24.869Z,29.87
2022-08-04T11:47:32.676Z,29.97
2022-08-04T11:50:40.860Z,30.26
2022-08-04T11:53:48.587Z,29.00
2022-08-04T11:56:56.454Z,30.07
2022-08-04T12:00:09.429Z,30.76
2022-08-04T12:03:06.096Z,29.61
2022-08-04T12:06:13.866Z,29.62
2022-08-04T12:09:21.896Z,29.82
2022-08-04T12:12:29.642Z,29.82
2022-08-04T12:15:38.014Z,31.16
2022-08-04T12:18:45.947Z,29.71
2022-08-04T12:21:56.875Z,29.19
2022-08-04T12:25:04.980Z,29.37
2022-08-04T12:28:13.092Z,28.89
2022-08-04T12:31:21.210Z,29.57
2022-08-04T12:34:30.109Z,29.17
2022-08-04T12:37:37.964Z,29.06
2022-08-04T12:40:45.776Z,28.87
2022-08-04T12:43:53.491Z,28.58
2022-08-04T12:47:27.040Z,28.56
2022-08-04T12:50:06.804Z,29.06
2022-08-04T12:53:16.971Z,30.15
2022-08-04T12:56:20.453Z,28.76
2022-08-04T12:59:28.225Z,28.56
2022-08-04T13:02:36.931Z,28.76
2022-08-04T13:05:44.891Z,29.06
2022-08-04T13:08:52.639Z,29.05
2022-08-04T13:12:01.931Z,29.73
2022-08-04T13:15:10.260Z,29.03
2022-08-04T13:18:15.246Z,29.91
2022-08-04T13:21:49.843Z,30.13
2022-08-04T13:24:32.411Z,29.46
2022-08-04T13:27:43.016Z,30.04
2022-08-04T13:30:35.891Z,30.34
2022-08-04T13:33:43.685Z,29.95
2022-08-04T13:36:52.222Z,30.32
2022-08-04T13:40:00.133Z,29.24
2022-08-04T13:43:08.389Z,29.71
2022-08-04T13:46:13.694Z,29.03
2022-08-04T13:49:48.498Z,29.55
2022-08-04T13:52:24.411Z,30.54
2022-08-04T13:55:32.421Z,30.55
2022-08-04T13:58:41.066Z,30.82
2022-08-04T14:01:48.667Z,30.63
2022-08-04T14:04:54.185Z,30.24
2022-08-04T14:08:02.410Z,30.54
2022-08-04T14:11:09.906Z,29.94
2022-08-04T14:14:15.498Z,30.13
2022-08-04T14:17:23.115Z,30.71
2022-08-04T14:20:27.537Z,29.95
2022-08-04T14:23:36.018Z,30.34
2022-08-04T14:26:40.839Z,30.52
2022-08-04T14:29:48.885Z,29.43
2022-08-04T14:32:58.018Z,29.52
2022-08-04T14:36:06.326Z,30.81
2022-08-04T14:39:11.633Z,30.41
2022-08-04T14:42:19.655Z,30.51
2022-08-04T14:45:27.706Z,30.51
2022-08-04T14:48:39.674Z,30.29
2022-08-04T14:51:39.769Z,30.29
2022-08-04T14:54:47.974Z,29.61
2022-08-04T14:58:34.748Z,29.71
2022-08-04T15:01:01.403Z,29.44
2022-08-04T15:04:06.403Z,30.05
2022-08-04T15:07:16.833Z,30.84
2022-08-04T15:10:25.001Z,31.91
2022-08-04T15:13:32.653Z,31.74
2022-08-04T15:16:54.259Z,31.74
2022-08-04T15:19:55.968Z,31.76
2022-08-04T15:22:51.412Z,32.94
2022-08-04T15:25:59.577Z,33.64
2022-08-04T15:29:07.831Z,32.87
2022-08-04T15:32:16.601Z,34.84
2022-08-04T15:35:31.985Z,34.74
2022-08-04T15:38:31.203Z,35.65
2022-08-04T15:41:38.809Z,35.18
2022-08-04T15:44:42.713Z,36.58
2022-08-04T15:47:53.494Z,36.99
2022-08-04T15:50:50.990Z,38.65
2022-08-04T15:54:03.403Z,38.01
2022-08-04T15:57:03.463Z,39.02
2022-08-04T16:00:15.072Z,39.12
2022-08-04T16:03:12.391Z,39.39
2022-08-04T16:06:20.264Z,40.58
2022-08-04T16:09:45.518Z,42.15
2022-08-04T16:12:53.223Z,40.76
2022-08-04T16:15:39.334Z,40.17
2022-08-04T16:18:47.973Z,41.27
2022-08-04T16:21:55.871Z,41.35
2022-08-04T16:25:03.323Z,41.15
2022-08-04T16:28:11.285Z,42.01
2022-08-04T16:31:19.275Z,42.32
2022-08-04T16:34:49.187Z,42.05
2022-08-04T16:37:33.179Z,43.05
2022-08-04T16:40:41.421Z,43.66
2022-08-04T16:43:49.340Z,43.37
2022-08-04T16:47:08.465Z,43.95
2022-08-04T16:50:03.309Z,43.37
2022-08-04T16:53:40.004Z,43.76
2022-08-04T16:56:16.651Z,44.07
2022-08-04T16:59:26.478Z,44.37
2022-08-04T17:02:34.239Z,44.48
2022-08-04T17:05:42.552Z,44.78
2022-08-04T17:08:50.743Z,45.88
2022-08-04T17:11:58.227Z,45.39
2022-08-04T17:15:06.670Z,44.92
2022-08-04T17:18:14.668Z,45.61
2022-08-04T17:21:15.916Z,46.22
2022-08-04T17:24:24.467Z,46.61
2022-08-04T17:28:19.896Z,47.20
2022-08-04T17:30:37.761Z,47.22
2022-08-04T17:33:54.391Z,48.43
2022-08-04T17:36:48.179Z,48.82
2022-08-04T17:39:56.482Z,49.92
2022-08-04T17:44:01.281Z,50.44
2022-08-04T17:46:09.539Z,51.03
2022-08-04T17:49:09.771Z,51.62
2022-08-04T17:52:27.489Z,52.43
2022-08-04T17:55:23.330Z,52.92
2022-08-04T17:58:26.998Z,53.05
2022-08-04T18:01:35.447Z,53.76
2022-08-04T18:04:40.237Z,53.86
2022-08-04T18:08:34.470Z,54.35
2022-08-04T18:10:55.038Z,53.69
2022-08-04T18:13:53.361Z,53.91
2022-08-04T18:17:02.143Z,54.40
2022-08-04T18:20:07.254Z,54.43
2022-08-04T18:23:16.792Z,54.72
2022-08-04T18:26:25.367Z,55.12
2022-08-04T18:32:33.126Z,55.35
2022-08-04T18:36:33.181Z,54.78
2022-08-04T18:38:37.119Z,54.68
2022-08-04T18:41:51.524Z,55.00
2022-08-04T18:44:52.622Z,55.10
2022-08-04T18:47:58.658Z,55.60
2022-08-04T18:51:11.157Z,55.00
2022-08-04T18:54:01.842Z,55.72
2022-08-04T19:00:16.496Z,56.14
2022-08-04T19:03:30.449Z,56.84
2022-08-04T19:06:35.127Z,57.23
2022-08-04T19:09:50.929Z,58.51
2022-08-04T19:12:49.288Z,58.61
2022-08-04T19:15:58.995Z,60.13
2022-08-04T19:19:08.870Z,60.75
2022-08-04T19:22:36.096Z,61.27
2022-08-04T19:26:02.648Z,60.97
2022-08-04T19:28:29.896Z,60.41
2022-08-04T19:31:40.185Z,61.40
2022-08-04T19:34:35.829Z,62.19
2022-08-04T19:37:56.829Z,61.83
2022-08-04T19:40:50.470Z,62.32
2022-08-04T19:43:50.261Z,62.72
2022-08-04T19:47:00.686Z,63.42
2022-08-04T19:50:05.281Z,63.02
2022-08-04T19:53:19.283Z,63.12
2022-08-04T19:56:10.268Z,63.31
2022-08-04T19:59:18.081Z,63.12
2022-08-04T20:02:28.023Z,63.64
2022-08-04T20:05:53.155Z,63.45
2022-08-04T20:08:48.506Z,63.34
2022-08-04T20:11:45.143Z,63.74
2022-08-04T20:14:54.484Z,64.67
2022-08-04T20:18:35.159Z,64.67
2022-08-04T20:21:11.384Z,64.20
2022-08-04T20:24:39.068Z,63.70
2022-08-04T20:27:18.860Z,64.70
2022-08-04T20:30:28.489Z,63.54
2022-08-04T20:33:36.825Z,63.73
2022-08-04T20:36:49.772Z,63.54
2022-08-04T20:39:54.502Z,63.34
2022-08-04T20:42:51.632Z,63.43
2022-08-04T20:45:59.883Z,62.64
2022-08-04T20:49:07.936Z,62.21
2022-08-04T20:52:20.372Z,61.42
2022-08-04T20:55:17.702Z,61.35
2022-08-04T20:58:27.591Z,60.96
2022-08-04T21:01:30.810Z,61.42
2022-08-04T21:04:45.321Z,60.93
2022-08-04T21:07:48.959Z,60.13
2022-08-04T21:10:47.406Z,59.63
2022-08-04T21:13:55.987Z,59.63
2022-08-04T21:17:07.138Z,59.76
2022-08-04T21:20:14.768Z,59.76
2022-08-04T21:23:20.372Z,59.76
2022-08-04T21:26:30.253Z,59.86
2022-08-04T21:29:38.314Z,60.46
2022-08-04T21:32:47.015Z,60.36
2022-08-04T21:35:46.875Z,60.19
2022-08-04T21:38:56.726Z,60.28
2022-08-04T21:42:28.877Z,60.69
2022-08-04T21:45:10.509Z,60.06
2022-08-04T21:48:18.972Z,60.36
2022-08-04T21:51:58.488Z,60.26
2022-08-04T21:54:32.582Z,61.08
2022-08-04T21:57:42.030Z,65.75
2022-08-04T22:00:52.771Z,66.88
2022-08-04T22:04:01.169Z,68.46
2022-08-04T22:07:09.059Z,66.61
2022-08-04T22:10:22.396Z,65.84
2022-08-04T22:13:22.976Z,65.64
2022-08-04T22:16:30.422Z,65.45
2022-08-04T22:19:50.725Z,65.75
2022-08-04T22:22:43.944Z,66.14
2022-08-04T22:25:55.858Z,66.54
2022-08-04T22:28:52.979Z,66.97
2022-08-04T22:32:00.326Z,67.57
2022-08-04T22:35:36.122Z,68.66
2022-08-04T22:38:24.100Z,69.36
2022-08-04T22:41:19.217Z,69.06
2022-08-04T22:44:32.330Z,71.45
2022-08-04T22:47:30.748Z,72.94
2022-08-04T22:50:38.606Z,72.58
2022-08-04T22:53:49.150Z,75.76
2022-08-04T22:56:57.072Z,73.91
2022-08-04T23:00:04.938Z,75.16
2022-08-04T23:03:36.869Z,74.51
2022-08-04T23:06:18.212Z,76.20
2022-08-04T23:09:21.482Z,75.44
2022-08-04T23:12:29.940Z,79.52
2022-08-04T23:15:38.311Z,81.46
2022-08-04T23:18:48.276Z,80.60
2022-08-04T23:21:47.919Z,84.39
2022-08-04T23:24:51.746Z,83.53
2022-08-04T23:27:59.629Z,84.03
2022-08-04T23:31:10.093Z,85.72
2022-08-04T23:34:07.320Z,88.06
2022-08-04T23:37:16.205Z,87.61
2022-08-04T23:40:32.742Z,90.05
2022-08-04T23:43:49.268Z,92.44
2022-08-04T23:46:34.735Z,93.15
2022-08-04T23:49:45.014Z,92.75
2022-08-04T23:52:53.647Z,92.55
2022-08-04T23:56:01.070Z,91.79
2022-08-04T23:59:23.115Z,93.04
